createdAt,value
2017-03-12T00:00:34.596Z,99.99
2017-03-12T00:01:44.405Z,99.99
2017-03-12T00:02:53.424Z,99.99
2017-03-12T00:04:03.326Z,99.99
2017-03-12T00:05:12.722Z,99.99
2017-03-12T00:06:22.127Z,99.99
2017-03-12T00:07:31.942Z,99.99
2017-03-12T00:08:41.408Z,99.99
2017-03-12T00:09:50.137Z,99.99
2017-03-12T00:10:59.273Z,99.99
2017-03-12T00:12:08.361Z,99.99
2017-03-12T00:13:18.163Z,99.99
2017-03-12T00:14:27.067Z,99.16
2017-03-12T00:15:36.066Z,99.83
2017-03-12T00:16:45.068Z,99.99
2017-03-12T00:17:54.896Z,99.99
2017-03-12T00:19:03.492Z,96.69
2017-03-12T00:20:13.350Z,95.98
2017-03-12T00:21:22.763Z,97.03
2017-03-12T00:22:31.382Z,97.41
2017-03-12T00:23:40.777Z,99.21
2017-03-12T00:24:49.775Z,99.69
2017-03-12T00:25:59.577Z,99.4
2017-03-12T00:27:08.980Z,99.78
2017-03-12T00:28:17.635Z,99.99
2017-03-12T00:29:27.065Z,99.99
2017-03-12T00:30:36.477Z,99.99
2017-03-12T00:31:45.889Z,99.99
2017-03-12T00:32:54.892Z,99.99
2017-03-12T00:34:04.114Z,99.99
2017-03-12T00:35:13.114Z,99.99
2017-03-12T00:36:22.521Z,99.99
2017-03-12T00:37:31.964Z,99.99
2017-03-12T00:38:41.920Z,99.99
2017-03-12T00:39:51.329Z,99.99
2017-03-12T00:41:00.330Z,99.99
2017-03-12T00:42:08.933Z,99.99
2017-03-12T00:43:18.345Z,99.99
2017-03-12T00:44:28.158Z,99.99
2017-03-12T00:45:37.178Z,99.99
2017-03-12T00:46:46.593Z,99.99
2017-03-12T00:47:55.996Z,99.99
2017-03-12T00:49:05.007Z,99.99
2017-03-12T00:50:14.403Z,99.99
2017-03-12T00:51:23.412Z,99.99
2017-03-12T00:52:32.840Z,99.99
2017-03-12T00:53:41.440Z,99.99
2017-03-12T00:54:50.459Z,99.99
2017-03-12T00:56:00.280Z,99.99
2017-03-12T00:57:09.292Z,99.99
2017-03-12T00:58:18.289Z,99.99
2017-03-12T00:59:28.079Z,99.99
2017-03-12T01:00:37.476Z,99.99
2017-03-12T01:01:46.084Z,99.99
2017-03-12T01:02:55.923Z,99.99
2017-03-12T01:04:04.965Z,99.99
2017-03-12T01:05:14.401Z,99.99
2017-03-12T01:06:23.408Z,99.99
2017-03-12T01:07:32.437Z,99.99
2017-03-12T01:08:41.467Z,99.99
2017-03-12T01:09:50.097Z,99.99
2017-03-12T01:10:59.529Z,99.99
2017-03-12T01:12:08.802Z,99.99
2017-03-12T01:13:18.220Z,99.99
2017-03-12T01:14:28.043Z,99.99
2017-03-12T01:15:37.446Z,99.99
2017-03-12T01:16:46.861Z,99.99
2017-03-12T01:17:56.657Z,99.99
2017-03-12T01:19:06.069Z,99.99
2017-03-12T01:20:15.093Z,99.99
2017-03-12T01:21:24.160Z,99.99
2017-03-12T01:22:34.086Z,99.99
2017-03-12T01:23:43.488Z,99.99
2017-03-12T01:24:52.890Z,99.99
2017-03-12T01:26:01.933Z,99.99
2017-03-12T01:27:10.974Z,99.99
2017-03-12T01:28:20.375Z,99.99
2017-03-12T01:29:30.571Z,99.99
2017-03-12T01:30:39.593Z,99.99
2017-03-12T01:31:48.601Z,99.99
2017-03-12T01:32:57.633Z,99.99
2017-03-12T01:34:06.653Z,99.99
2017-03-12T01:35:16.072Z,99.99
2017-03-12T01:36:25.097Z,99.99
2017-03-12T01:37:34.520Z,99.99
2017-03-12T01:38:44.735Z,99.99
2017-03-12T01:39:54.153Z,99.99
2017-03-12T01:41:03.183Z,99.99
2017-03-12T01:42:12.713Z,99.99
2017-03-12T01:43:21.934Z,99.99
2017-03-12T01:44:31.758Z,99.99
2017-03-12T01:45:41.157Z,99.99
2017-03-12T01:46:49.782Z,99.99
2017-03-12T01:47:59.191Z,99.99
2017-03-12T01:49:08.451Z,99.99
2017-03-12T01:50:17.477Z,99.99
2017-03-12T01:51:26.877Z,99.99
2017-03-12T01:52:35.882Z,99.99
2017-03-12T01:53:44.482Z,99.99
2017-03-12T01:54:53.878Z,99.99
2017-03-12T01:56:03.328Z,99.99
2017-03-12T01:57:12.337Z,99.99
2017-03-12T01:58:22.152Z,99.99
2017-03-12T01:59:31.398Z,99.99
2017-03-12T02:00:41.214Z,99.99
2017-03-12T02:01:50.212Z,99.99
2017-03-12T02:02:59.222Z,99.99
2017-03-12T02:04:08.218Z,99.99
2017-03-12T02:05:17.256Z,99.99
2017-03-12T02:06:25.951Z,99.99
2017-03-12T02:07:34.959Z,99.99
2017-03-12T02:08:44.366Z,99.99
2017-03-12T02:09:52.986Z,99.99
2017-03-12T02:11:02.000Z,99.99
2017-03-12T02:12:10.997Z,99.99
2017-03-12T02:13:19.622Z,99.99
2017-03-12T02:14:29.451Z,99.99
2017-03-12T02:15:39.254Z,99.99
2017-03-12T02:16:48.279Z,99.99
2017-03-12T02:17:57.682Z,99.99
2017-03-12T02:19:06.681Z,99.99
2017-03-12T02:20:15.709Z,99.99
2017-03-12T02:21:25.130Z,99.99
2017-03-12T02:22:33.768Z,99.99
2017-03-12T02:23:43.177Z,99.99
2017-03-12T02:24:52.173Z,99.99
2017-03-12T02:26:02.372Z,99.99
2017-03-12T02:27:11.769Z,99.99
2017-03-12T02:28:21.183Z,99.99
2017-03-12T02:29:30.993Z,99.99
2017-03-12T02:30:40.807Z,99.99
2017-03-12T02:31:49.824Z,99.99
2017-03-12T02:32:58.417Z,99.99
2017-03-12T02:34:07.424Z,99.99
2017-03-12T02:35:16.422Z,99.99
2017-03-12T02:36:26.500Z,99.99
2017-03-12T02:37:35.903Z,99.99
2017-03-12T02:38:44.553Z,99.99
2017-03-12T02:39:53.949Z,99.99
2017-03-12T02:41:02.976Z,99.99
2017-03-12T02:42:11.979Z,99.99
2017-03-12T02:43:20.982Z,99.99
2017-03-12T02:44:29.976Z,99.99
2017-03-12T02:45:39.424Z,99.99
2017-03-12T02:46:49.223Z,99.99
2017-03-12T02:47:57.827Z,99.99
2017-03-12T02:49:06.844Z,99.99
2017-03-12T02:50:15.856Z,99.99
2017-03-12T02:51:24.456Z,99.99
2017-03-12T02:52:33.874Z,99.99
2017-03-12T02:53:42.506Z,99.99
2017-03-12T02:54:51.968Z,99.99
2017-03-12T02:56:00.977Z,99.99
2017-03-12T02:57:10.022Z,99.99
2017-03-12T02:58:18.633Z,99.99
2017-03-12T02:59:28.051Z,99.99
2017-03-12T03:00:37.879Z,99.99
2017-03-12T03:01:47.286Z,99.99
2017-03-12T03:02:55.904Z,99.99
2017-03-12T03:04:04.934Z,99.99
2017-03-12T03:05:13.535Z,99.99
2017-03-12T03:06:22.140Z,99.99
2017-03-12T03:07:31.154Z,99.99
2017-03-12T03:08:40.171Z,99.99
2017-03-12T03:09:49.197Z,99.99
2017-03-12T03:10:58.609Z,99.99
2017-03-12T03:12:07.619Z,99.99
2017-03-12T03:13:16.223Z,99.99
2017-03-12T03:14:24.825Z,99.99
2017-03-12T03:15:34.243Z,99.99
2017-03-12T03:16:42.871Z,99.99
2017-03-12T03:17:53.072Z,99.99
2017-03-12T03:19:02.092Z,99.99
2017-03-12T03:20:11.503Z,99.99
2017-03-12T03:21:20.924Z,99.99
2017-03-12T03:22:29.547Z,99.99
2017-03-12T03:23:39.371Z,99.99
2017-03-12T03:24:48.376Z,99.99
2017-03-12T03:25:56.974Z,99.99
2017-03-12T03:27:05.598Z,99.99
2017-03-12T03:28:14.609Z,99.99
2017-03-12T03:29:23.627Z,99.99
2017-03-12T03:30:33.057Z,99.99
2017-03-12T03:31:42.454Z,99.99
2017-03-12T03:32:51.444Z,99.99
2017-03-12T03:34:00.856Z,99.99
2017-03-12T03:35:09.890Z,99.99
2017-03-12T03:36:18.934Z,99.99
2017-03-12T03:37:28.330Z,99.99
2017-03-12T03:38:37.727Z,99.99
2017-03-12T03:39:46.330Z,99.99
2017-03-12T03:40:55.748Z,99.99
2017-03-12T03:42:04.357Z,99.99
2017-03-12T03:43:13.361Z,99.99
2017-03-12T03:44:22.779Z,99.99
2017-03-12T03:45:32.064Z,99.99
2017-03-12T03:46:41.462Z,99.99
2017-03-12T03:47:50.473Z,99.99
2017-03-12T03:48:59.467Z,99.99
2017-03-12T03:50:08.077Z,99.99
2017-03-12T03:51:17.879Z,99.99
2017-03-12T03:52:26.885Z,99.99
2017-03-12T03:53:36.693Z,99.99
2017-03-12T03:54:46.100Z,99.99
2017-03-12T03:55:55.127Z,99.99
2017-03-12T03:57:04.533Z,99.99
2017-03-12T03:58:13.945Z,99.99
2017-03-12T03:59:23.340Z,99.99
2017-03-12T04:00:32.354Z,99.99
2017-03-12T04:01:41.751Z,99.99
2017-03-12T04:02:50.395Z,99.99
2017-03-12T04:03:59.803Z,99.99
2017-03-12T04:05:09.199Z,99.99
2017-03-12T04:06:17.793Z,99.99
2017-03-12T04:07:26.385Z,99.99
2017-03-12T04:08:34.983Z,99.99
2017-03-12T04:09:44.408Z,99.99
2017-03-12T04:10:53.414Z,99.99
2017-03-12T04:12:03.220Z,99.99
2017-03-12T04:13:13.011Z,99.99
2017-03-12T04:14:22.417Z,99.99
2017-03-12T04:15:31.838Z,99.99
2017-03-12T04:16:42.036Z,99.99
2017-03-12T04:17:51.043Z,99.99
2017-03-12T04:19:01.071Z,99.99
2017-03-12T04:20:10.478Z,99.99
2017-03-12T04:21:19.521Z,99.99
2017-03-12T04:22:28.523Z,99.99
2017-03-12T04:23:37.939Z,99.99
2017-03-12T04:24:47.768Z,99.99
2017-03-12T04:25:57.216Z,99.99
2017-03-12T04:27:06.641Z,99.99
2017-03-12T04:28:15.657Z,99.99
2017-03-12T04:29:24.653Z,99.99
2017-03-12T04:30:34.464Z,99.99
2017-03-12T04:31:43.089Z,99.99
2017-03-12T04:32:52.099Z,99.99
2017-03-12T04:34:01.508Z,99.99
2017-03-12T04:35:10.919Z,99.99
2017-03-12T04:36:19.532Z,99.99
2017-03-12T04:37:28.373Z,99.99
2017-03-12T04:38:37.773Z,99.99
2017-03-12T04:39:47.274Z,99.99
2017-03-12T04:40:56.394Z,99.99
2017-03-12T04:42:05.797Z,99.99
2017-03-12T04:43:14.420Z,99.99
2017-03-12T04:44:23.435Z,99.99
2017-03-12T04:45:32.843Z,99.99
2017-03-12T04:46:41.563Z,99.99
2017-03-12T04:47:51.363Z,99.99
2017-03-12T04:49:00.757Z,99.99
2017-03-12T04:50:09.353Z,99.99
2017-03-12T04:51:18.750Z,99.99
2017-03-12T04:52:28.147Z,99.99
2017-03-12T04:53:37.176Z,99.99
2017-03-12T04:54:45.941Z,99.99
2017-03-12T04:55:55.054Z,99.99
2017-03-12T04:57:04.593Z,99.99
2017-03-12T04:58:13.488Z,99.99
2017-03-12T04:59:22.150Z,99.99
2017-03-12T05:00:31.335Z,99.99
2017-03-12T05:01:40.749Z,99.99
2017-03-12T05:02:50.720Z,99.99
2017-03-12T05:03:59.367Z,99.99
2017-03-12T05:05:08.855Z,99.99
2017-03-12T05:06:18.322Z,99.99
2017-03-12T05:07:27.818Z,99.99
2017-03-12T05:08:36.908Z,99.99
2017-03-12T05:09:46.323Z,99.99
2017-03-12T05:10:55.794Z,99.99
2017-03-12T05:12:04.901Z,99.99
2017-03-12T05:13:14.718Z,99.99
2017-03-12T05:14:23.782Z,99.99
2017-03-12T05:15:32.417Z,99.99
2017-03-12T05:16:41.493Z,99.99
2017-03-12T05:17:50.943Z,99.99
2017-03-12T05:19:00.412Z,99.99
2017-03-12T05:20:09.565Z,99.99
2017-03-12T05:21:18.592Z,99.99
2017-03-12T05:22:27.270Z,99.99
2017-03-12T05:23:36.410Z,99.99
2017-03-12T05:24:45.506Z,99.99
2017-03-12T05:25:55.010Z,99.99
2017-03-12T05:27:04.045Z,99.99
2017-03-12T05:28:13.127Z,99.99
2017-03-12T05:29:22.230Z,99.99
2017-03-12T05:30:32.041Z,99.99
2017-03-12T05:31:42.000Z,99.99
2017-03-12T05:32:51.792Z,99.99
2017-03-12T05:34:00.917Z,99.99
2017-03-12T05:35:09.992Z,99.99
2017-03-12T05:36:19.458Z,99.99
2017-03-12T05:37:29.305Z,99.99
2017-03-12T05:38:38.372Z,99.99
2017-03-12T05:39:47.992Z,99.99
2017-03-12T05:40:57.842Z,99.99
2017-03-12T05:42:07.402Z,99.99
2017-03-12T05:43:16.875Z,99.99
2017-03-12T05:44:25.967Z,99.99
2017-03-12T05:45:35.483Z,99.99
2017-03-12T05:46:44.575Z,99.99
2017-03-12T05:47:54.458Z,99.99
2017-03-12T05:49:03.890Z,99.99
2017-03-12T05:50:13.078Z,99.99
2017-03-12T05:51:22.153Z,99.99
2017-03-12T05:52:31.197Z,99.99
2017-03-12T05:53:40.668Z,99.99
2017-03-12T05:54:49.667Z,99.99
2017-03-12T05:55:58.920Z,99.99
2017-03-12T05:57:08.367Z,99.99
2017-03-12T05:58:16.977Z,99.99
2017-03-12T05:59:25.986Z,99.99
2017-03-12T06:00:35.801Z,99.99
2017-03-12T06:01:45.212Z,99.99
2017-03-12T06:02:53.815Z,99.99
2017-03-12T06:04:03.205Z,99.99
2017-03-12T06:05:12.633Z,99.99
2017-03-12T06:06:21.629Z,99.99
2017-03-12T06:07:31.037Z,99.99
2017-03-12T06:08:39.645Z,99.99
2017-03-12T06:09:48.647Z,99.99
2017-03-12T06:10:57.264Z,99.99
2017-03-12T06:12:05.894Z,99.99
2017-03-12T06:13:15.309Z,99.99
2017-03-12T06:14:24.311Z,99.99
2017-03-12T06:15:32.951Z,99.99
2017-03-12T06:16:41.959Z,99.99
2017-03-12T06:17:51.356Z,99.99
2017-03-12T06:19:00.771Z,99.99
2017-03-12T06:20:10.172Z,99.99
2017-03-12T06:21:19.195Z,99.99
2017-03-12T06:22:28.191Z,99.99
2017-03-12T06:23:36.806Z,99.99
2017-03-12T06:24:45.856Z,99.99
2017-03-12T06:25:55.263Z,99.99
2017-03-12T06:27:04.283Z,99.99
2017-03-12T06:28:13.599Z,99.99
2017-03-12T06:29:22.635Z,99.99
2017-03-12T06:30:31.657Z,99.99
2017-03-12T06:31:40.663Z,99.99
2017-03-12T06:32:49.669Z,99.99
2017-03-12T06:33:59.086Z,99.99
2017-03-12T06:35:07.692Z,99.99
2017-03-12T06:36:16.699Z,99.99
2017-03-12T06:37:25.733Z,99.99
2017-03-12T06:38:34.763Z,99.99
2017-03-12T06:39:44.237Z,99.99
2017-03-12T06:40:53.241Z,99.99
2017-03-12T06:42:02.246Z,99.99
2017-03-12T06:43:11.276Z,99.99
2017-03-12T06:44:20.272Z,99.99
2017-03-12T06:45:29.684Z,99.99
2017-03-12T06:46:39.108Z,99.99
2017-03-12T06:47:48.903Z,99.99
2017-03-12T06:48:57.897Z,99.99
2017-03-12T06:50:07.718Z,99.99
2017-03-12T06:51:16.731Z,99.99
2017-03-12T06:52:25.753Z,99.99
2017-03-12T06:53:34.772Z,99.99
2017-03-12T06:54:43.388Z,99.99
2017-03-12T06:55:52.786Z,99.99
2017-03-12T06:57:01.787Z,99.99
2017-03-12T06:58:10.805Z,99.99
2017-03-12T06:59:20.074Z,99.99
2017-03-12T07:00:29.468Z,99.99
2017-03-12T07:01:38.874Z,99.99
2017-03-12T07:02:47.932Z,99.99
2017-03-12T07:03:58.702Z,99.99
2017-03-12T07:05:07.434Z,99.99
2017-03-12T07:06:16.516Z,99.99
2017-03-12T07:07:26.527Z,99.99
2017-03-12T07:08:35.935Z,99.99
2017-03-12T07:09:44.806Z,99.99
2017-03-12T07:10:54.273Z,99.99
2017-03-12T07:12:03.759Z,99.99
2017-03-12T07:13:12.549Z,99.99
2017-03-12T07:14:21.603Z,99.99
2017-03-12T07:15:31.022Z,99.99
2017-03-12T07:16:39.635Z,99.99
2017-03-12T07:17:48.652Z,99.99
2017-03-12T07:18:57.320Z,99.99
2017-03-12T07:20:06.324Z,99.99
2017-03-12T07:21:14.931Z,99.99
2017-03-12T07:22:24.325Z,99.99
2017-03-12T07:23:33.776Z,99.99
2017-03-12T07:24:42.794Z,99.99
2017-03-12T07:25:51.450Z,99.99
2017-03-12T07:27:00.470Z,99.99
2017-03-12T07:28:09.899Z,99.99
2017-03-12T07:29:18.920Z,99.99
2017-03-12T07:30:28.356Z,99.99
2017-03-12T07:31:37.757Z,99.99
2017-03-12T07:32:47.963Z,99.99
2017-03-12T07:33:56.966Z,99.99
2017-03-12T07:35:06.407Z,99.99
2017-03-12T07:36:16.221Z,99.99
2017-03-12T07:37:25.659Z,99.99
2017-03-12T07:38:35.055Z,99.99
2017-03-12T07:39:44.462Z,99.99
2017-03-12T07:40:53.881Z,99.99
2017-03-12T07:42:03.549Z,99.99
2017-03-12T07:43:12.944Z,99.99
2017-03-12T07:44:22.349Z,99.99
2017-03-12T07:45:32.166Z,99.99
2017-03-12T07:46:40.763Z,99.99
2017-03-12T07:47:49.783Z,99.99
2017-03-12T07:48:58.812Z,99.99
2017-03-12T07:50:07.824Z,99.99
2017-03-12T07:51:18.050Z,99.99
2017-03-12T07:52:27.892Z,99.99
2017-03-12T07:53:36.899Z,99.99
2017-03-12T07:54:46.716Z,99.99
2017-03-12T07:55:55.734Z,99.99
2017-03-12T07:57:04.735Z,99.99
2017-03-12T07:58:13.745Z,99.99
2017-03-12T07:59:23.552Z,99.99
2017-03-12T08:00:32.595Z,99.99
2017-03-12T08:01:41.619Z,99.99
2017-03-12T08:02:50.638Z,99.99
2017-03-12T08:03:59.669Z,99.99
2017-03-12T08:05:09.205Z,99.99
2017-03-12T08:06:17.844Z,99.99
2017-03-12T08:07:27.257Z,99.99
2017-03-12T08:08:36.271Z,99.99
2017-03-12T08:09:45.765Z,99.99
2017-03-12T08:10:54.926Z,99.99
2017-03-12T08:12:03.971Z,99.99
2017-03-12T08:13:12.985Z,99.99
2017-03-12T08:14:21.654Z,99.99
2017-03-12T08:15:30.284Z,99.99
2017-03-12T08:16:39.294Z,99.99
2017-03-12T08:17:47.917Z,99.99
2017-03-12T08:18:57.333Z,99.99
2017-03-12T08:20:06.374Z,99.99
2017-03-12T08:21:15.809Z,99.99
2017-03-12T08:22:25.217Z,99.99
2017-03-12T08:23:33.940Z,99.99
2017-03-12T08:24:42.580Z,99.99
2017-03-12T08:25:51.226Z,99.99
2017-03-12T08:26:59.898Z,99.99
2017-03-12T08:28:08.982Z,99.99
2017-03-12T08:29:18.445Z,99.99
2017-03-12T08:30:27.889Z,99.99
2017-03-12T08:31:37.314Z,99.99
2017-03-12T08:32:46.356Z,99.99
2017-03-12T08:33:55.890Z,99.99
2017-03-12T08:35:04.927Z,99.99
2017-03-12T08:36:14.356Z,99.99
2017-03-12T08:37:23.821Z,99.07
2017-03-12T08:38:32.941Z,99.99
2017-03-12T08:39:42.220Z,99.07
2017-03-12T08:40:51.645Z,99.07
2017-03-12T08:42:00.663Z,99.26
2017-03-12T08:43:09.672Z,96.12
2017-03-12T08:44:18.292Z,96.89
2017-03-12T08:45:26.891Z,97.74
2017-03-12T08:46:35.900Z,94.7
2017-03-12T08:47:44.512Z,93.75
2017-03-12T08:48:53.536Z,94.03
2017-03-12T08:50:02.164Z,93.37
2017-03-12T08:51:11.194Z,93.84
2017-03-12T08:52:19.835Z,93.37
2017-03-12T08:53:30.197Z,94.27
2017-03-12T08:54:38.799Z,93.13
2017-03-12T08:55:47.420Z,91.51
2017-03-12T08:56:56.062Z,91.89
2017-03-12T08:58:05.090Z,91.99
2017-03-12T08:59:13.703Z,92.65
2017-03-12T09:00:23.152Z,88.56
2017-03-12T09:01:32.151Z,86.76
2017-03-12T09:02:40.761Z,84.76
2017-03-12T09:03:49.779Z,85.28
2017-03-12T09:04:58.798Z,85.18
2017-03-12T09:06:07.837Z,84.99
2017-03-12T09:07:17.253Z,84.99
2017-03-12T09:08:26.679Z,84.42
2017-03-12T09:09:35.681Z,84.36
2017-03-12T09:10:44.310Z,82.75
2017-03-12T09:11:52.937Z,80.65
2017-03-12T09:13:01.989Z,80.55
2017-03-12T09:14:10.986Z,79.51
2017-03-12T09:15:21.200Z,78.75
2017-03-12T09:16:29.819Z,79.03
2017-03-12T09:17:38.832Z,77.22
2017-03-12T09:18:47.829Z,78.22
2017-03-12T09:19:56.840Z,78.31
2017-03-12T09:21:06.118Z,77.26
2017-03-12T09:22:14.771Z,77.45
2017-03-12T09:23:24.183Z,76.88
2017-03-12T09:24:33.216Z,77.17
2017-03-12T09:25:42.241Z,76.03
2017-03-12T09:26:51.275Z,73.83
2017-03-12T09:28:00.714Z,71.93
2017-03-12T09:29:09.745Z,71.96
2017-03-12T09:30:18.348Z,72.53
2017-03-12T09:31:30.355Z,72.06
2017-03-12T09:32:39.825Z,70.82
2017-03-12T09:33:48.496Z,70.63
2017-03-12T09:34:57.900Z,69.77
2017-03-12T09:36:06.915Z,68.72
2017-03-12T09:37:15.930Z,68.24
2017-03-12T09:38:25.389Z,68.57
2017-03-12T09:39:34.420Z,68.47
2017-03-12T09:40:43.464Z,68.57
2017-03-12T09:41:52.882Z,67.23
2017-03-12T09:43:01.495Z,67.33
2017-03-12T09:44:10.538Z,67.14
2017-03-12T09:45:20.002Z,66.75
2017-03-12T09:46:29.118Z,67.23
2017-03-12T09:47:38.158Z,66.66
2017-03-12T09:48:47.547Z,66.47
2017-03-12T09:49:57.043Z,66.66
2017-03-12T09:51:05.734Z,66.78
2017-03-12T09:52:14.815Z,67.07
2017-03-12T09:53:24.684Z,65.45
2017-03-12T09:54:34.788Z,65.26
2017-03-12T09:55:46.031Z,64.59
2017-03-12T09:56:56.074Z,64.78
2017-03-12T09:58:07.728Z,64.97
2017-03-12T09:59:18.394Z,65.45
2017-03-12T10:00:28.706Z,65.45
2017-03-12T10:01:40.898Z,65.36
2017-03-12T10:02:51.541Z,64.05
2017-03-12T10:04:01.568Z,64.12
2017-03-12T10:05:12.875Z,64.53
2017-03-12T10:06:23.928Z,65.2
2017-03-12T10:07:35.818Z,64.43
2017-03-12T10:08:46.473Z,64.53
2017-03-12T10:09:57.586Z,63.2
2017-03-12T10:11:09.116Z,62.05
2017-03-12T10:12:18.952Z,62.05
2017-03-12T10:13:30.441Z,62.52
2017-03-12T10:14:41.153Z,61.76
2017-03-12T10:15:51.298Z,61.95
2017-03-12T10:17:01.700Z,62.43
2017-03-12T10:18:13.397Z,63.39
2017-03-12T10:19:24.316Z,64.15
2017-03-12T10:20:35.492Z,62.91
2017-03-12T10:21:45.043Z,63.76
2017-03-12T10:22:56.567Z,63.76
2017-03-12T10:24:06.992Z,61.57
2017-03-12T10:25:17.252Z,62.05
2017-03-12T10:26:27.273Z,62.43
2017-03-12T10:27:38.747Z,62.15
2017-03-12T10:28:47.805Z,61.76
2017-03-12T10:29:57.838Z,61.29
2017-03-12T10:31:08.195Z,61.19
2017-03-12T10:32:18.622Z,62.81
2017-03-12T10:33:30.761Z,61.76
2017-03-12T10:34:42.854Z,61.29
2017-03-12T10:35:52.782Z,60.14
2017-03-12T10:37:03.631Z,60.33
2017-03-12T10:38:13.192Z,60.58
2017-03-12T10:39:23.105Z,60.39
2017-03-12T10:40:32.135Z,60.14
2017-03-12T10:41:41.156Z,61
2017-03-12T10:42:50.626Z,60.24
2017-03-12T10:44:00.163Z,59.66
2017-03-12T10:45:09.621Z,59.76
2017-03-12T10:46:18.655Z,59.85
2017-03-12T10:47:27.731Z,59.95
2017-03-12T10:48:36.388Z,59.47
2017-03-12T10:49:46.254Z,59.28
2017-03-12T10:50:56.176Z,59.28
2017-03-12T10:52:06.066Z,59.47
2017-03-12T10:53:15.537Z,58.51
2017-03-12T10:54:24.628Z,58.33
2017-03-12T10:55:33.663Z,58.51
2017-03-12T10:56:43.094Z,59.66
2017-03-12T10:57:52.540Z,59.38
2017-03-12T10:59:01.583Z,60.14
2017-03-12T11:00:10.223Z,59.56
2017-03-12T11:01:18.844Z,58.99
2017-03-12T11:02:27.880Z,58.9
2017-03-12T11:03:36.951Z,57.94
2017-03-12T11:04:45.566Z,57.09
2017-03-12T11:05:54.607Z,57.46
2017-03-12T11:07:04.031Z,58.04
2017-03-12T11:08:13.108Z,57.85
2017-03-12T11:09:21.713Z,56.63
2017-03-12T11:10:30.996Z,56.73
2017-03-12T11:11:39.629Z,57.02
2017-03-12T11:12:48.279Z,57.97
2017-03-12T11:13:57.323Z,60.17
2017-03-12T11:15:06.801Z,59.5
2017-03-12T11:16:15.837Z,59.59
2017-03-12T11:17:25.235Z,58.93
2017-03-12T11:18:33.839Z,58.16
2017-03-12T11:19:43.251Z,57.87
2017-03-12T11:20:52.565Z,59.12
2017-03-12T11:22:01.568Z,57.43
2017-03-12T11:23:10.585Z,57.59
2017-03-12T11:24:20.387Z,56.57
2017-03-12T11:25:28.991Z,55.52
2017-03-12T11:26:37.995Z,56.25
2017-03-12T11:27:46.603Z,56.06
2017-03-12T11:28:56.012Z,55.87
2017-03-12T11:30:04.621Z,56.16
2017-03-12T11:31:13.236Z,56.06
2017-03-12T11:32:21.897Z,56.73
2017-03-12T11:33:30.916Z,56.16
2017-03-12T11:34:41.339Z,54.94
2017-03-12T11:35:50.340Z,54.44
2017-03-12T11:37:02.846Z,54.82
2017-03-12T11:38:12.703Z,56.25
2017-03-12T11:39:21.729Z,55.4
2017-03-12T11:40:30.749Z,55.96
2017-03-12T11:41:39.764Z,54.53
2017-03-12T11:42:48.770Z,55.2
2017-03-12T11:43:57.426Z,56.25
2017-03-12T11:45:07.239Z,56.16
2017-03-12T11:46:16.251Z,56.54
2017-03-12T11:47:26.181Z,55.96
2017-03-12T11:48:38.568Z,55.4
2017-03-12T11:49:49.797Z,54.37
2017-03-12T11:51:00.906Z,54.82
2017-03-12T11:52:11.601Z,54.85
2017-03-12T11:53:23.092Z,54.56
2017-03-12T11:54:33.319Z,53.61
2017-03-12T11:55:44.202Z,53.41
2017-03-12T11:56:55.876Z,52.75
2017-03-12T11:58:07.300Z,52.55
2017-03-12T11:59:18.909Z,53.41
2017-03-12T12:00:30.992Z,53.22
2017-03-12T12:01:41.797Z,53.13
2017-03-12T12:02:50.413Z,53.03
2017-03-12T12:04:00.226Z,52.26
2017-03-12T12:05:09.225Z,52.36
2017-03-12T12:06:18.650Z,52.17
2017-03-12T12:07:28.067Z,52.17
2017-03-12T12:08:37.480Z,52.46
2017-03-12T12:09:46.488Z,52.55
2017-03-12T12:10:55.936Z,52.46
2017-03-12T12:12:04.957Z,52.46
2017-03-12T12:13:13.978Z,51.79
2017-03-12T12:14:23.447Z,51.98
2017-03-12T12:15:32.863Z,52.17
2017-03-12T12:16:41.510Z,52.46
2017-03-12T12:17:50.972Z,52.65
2017-03-12T12:19:01.668Z,52.65
2017-03-12T12:20:13.207Z,53.41
2017-03-12T12:21:24.849Z,53.99
2017-03-12T12:22:36.863Z,53.8
2017-03-12T12:23:49.063Z,54.56
2017-03-12T12:25:01.268Z,54.56
2017-03-12T12:26:11.958Z,54.56
2017-03-12T12:27:23.666Z,56.38
2017-03-12T12:28:35.379Z,57.24
2017-03-12T12:29:46.155Z,58.76
2017-03-12T12:30:57.080Z,56.67
2017-03-12T12:32:08.191Z,55.13
2017-03-12T12:33:19.811Z,55.04
2017-03-12T12:34:29.804Z,55.8
2017-03-12T12:35:41.235Z,56.38
2017-03-12T12:36:52.050Z,58.29
2017-03-12T12:38:03.208Z,58.86
2017-03-12T12:39:14.803Z,56.85
2017-03-12T12:40:24.333Z,53.51
2017-03-12T12:41:35.134Z,53.41
2017-03-12T12:42:44.580Z,55.61
2017-03-12T12:43:55.396Z,57.36
2017-03-12T12:45:05.320Z,55.45
2017-03-12T12:46:16.689Z,56.31
2017-03-12T12:47:27.466Z,54.68
2017-03-12T12:48:37.027Z,53.73
2017-03-12T12:49:48.655Z,55.26
2017-03-12T12:52:39.100Z,57.84
2017-03-12T12:53:50.327Z,53.25
2017-03-12T12:55:02.088Z,52.1
2017-03-12T12:56:14.611Z,51.34
2017-03-12T12:57:25.740Z,50.19
2017-03-12T12:58:37.758Z,50.38
2017-03-12T12:59:47.939Z,50.38
2017-03-12T13:00:57.824Z,51.15
2017-03-12T13:02:09.275Z,51.34
2017-03-12T13:03:18.866Z,52.01
2017-03-12T13:04:30.535Z,51.81
2017-03-12T13:05:42.117Z,52.39
2017-03-12T13:06:53.662Z,52.58
2017-03-12T13:08:05.403Z,52.29
2017-03-12T13:09:14.243Z,52.48
2017-03-12T13:10:23.312Z,53.63
2017-03-12T13:11:32.187Z,55.26
2017-03-12T13:12:40.817Z,53.44
2017-03-12T13:13:49.446Z,54.59
2017-03-12T13:14:58.511Z,53.34
2017-03-12T13:16:07.536Z,51.24
2017-03-12T13:17:17.064Z,50.29
2017-03-12T13:18:26.472Z,49.64
2017-03-12T13:19:35.660Z,49.55
2017-03-12T13:20:45.091Z,48.78
2017-03-12T13:21:54.175Z,48.3
2017-03-12T13:23:03.599Z,48.78
2017-03-12T13:24:12.647Z,48.49
2017-03-12T13:25:22.470Z,48.3
2017-03-12T13:26:31.496Z,48.59
2017-03-12T13:27:40.525Z,50.12
2017-03-12T13:28:49.575Z,49.55
2017-03-12T13:29:58.671Z,50.02
2017-03-12T13:31:07.730Z,50.98
2017-03-12T13:32:17.553Z,51.65
2017-03-12T13:33:27.047Z,50.21
2017-03-12T13:34:36.477Z,50.79
2017-03-12T13:35:45.160Z,50.41
2017-03-12T13:36:54.933Z,50.5
2017-03-12T13:38:04.418Z,51.17
2017-03-12T13:39:13.485Z,51.36
2017-03-12T13:40:22.951Z,49.35
2017-03-12T13:41:31.591Z,49.45
2017-03-12T13:42:41.092Z,49.07
2017-03-12T13:43:49.774Z,50.79
2017-03-12T13:44:59.230Z,50.31
2017-03-12T13:46:08.531Z,51.93
2017-03-12T13:47:17.562Z,52.13
2017-03-12T13:48:26.238Z,51.46
2017-03-12T13:49:35.670Z,50.79
2017-03-12T13:50:44.721Z,49.26
2017-03-12T13:51:53.755Z,49.55
2017-03-12T13:53:02.407Z,48.68
2017-03-12T13:54:11.053Z,49.84
2017-03-12T13:55:19.690Z,49.16
2017-03-12T13:56:28.726Z,48.3
2017-03-12T13:57:37.609Z,48.68
2017-03-12T13:58:47.084Z,49.45
2017-03-12T13:59:57.321Z,49.45
2017-03-12T14:01:05.962Z,50.6
2017-03-12T14:02:15.040Z,51.65
2017-03-12T14:03:24.082Z,52.22
2017-03-12T14:04:33.129Z,52.22
2017-03-12T14:05:42.629Z,52.13
2017-03-12T14:06:51.676Z,52.7
2017-03-12T14:08:00.742Z,54.07
2017-03-12T14:09:10.193Z,55.51
2017-03-12T14:10:19.607Z,54.93
2017-03-12T14:11:28.630Z,51.77
2017-03-12T14:12:37.639Z,50.52
2017-03-12T14:13:47.061Z,51.68
2017-03-12T14:14:57.004Z,51.1
2017-03-12T14:16:05.650Z,50.52
2017-03-12T14:17:14.525Z,48.42
2017-03-12T14:18:24.325Z,47.56
2017-03-12T14:19:34.153Z,47.66
2017-03-12T14:20:43.593Z,50.43
2017-03-12T14:21:53.102Z,52.66
2017-03-12T14:23:02.507Z,55.44
2017-03-12T14:24:11.564Z,54.77
2017-03-12T14:25:21.396Z,54.96
2017-03-12T14:26:30.025Z,50.17
2017-03-12T14:27:39.204Z,47.3
2017-03-12T14:28:48.618Z,48.64
2017-03-12T14:29:57.268Z,48.73
2017-03-12T14:31:05.911Z,47.58
2017-03-12T14:32:14.971Z,47.58
2017-03-12T14:33:24.241Z,48.25
2017-03-12T14:34:34.058Z,48.35
2017-03-12T14:35:43.079Z,47.49
2017-03-12T14:36:52.112Z,47.87
2017-03-12T14:38:01.164Z,47.11
2017-03-12T14:39:10.233Z,47.68
2017-03-12T14:40:19.264Z,47.11
2017-03-12T14:41:28.286Z,46.53
2017-03-12T14:42:37.314Z,48.64
2017-03-12T14:43:47.140Z,49.5
2017-03-12T14:44:56.163Z,49.02
2017-03-12T14:46:04.843Z,49.6
2017-03-12T14:47:13.464Z,46.82
2017-03-12T14:48:23.278Z,45.67
2017-03-12T14:49:32.288Z,47.49
2017-03-12T14:50:41.330Z,48.44
2017-03-12T14:51:50.732Z,46.91
2017-03-12T14:53:00.142Z,48.38
2017-03-12T14:54:09.546Z,48.25
2017-03-12T14:55:18.970Z,47.39
2017-03-12T14:56:28.372Z,47.3